createdAt,value
2023-01-19T00:00:49.535Z,83.63
2023-01-19T00:03:16.137Z,83.91
2023-01-19T00:05:44.304Z,83.68
2023-01-19T00:08:14.983Z,83.63
2023-01-19T00:10:47.231Z,83.57
2023-01-19T00:13:14.843Z,83.50
2023-01-19T00:15:41.782Z,83.63
2023-01-19T00:18:10.580Z,83.57
2023-01-19T00:20:37.834Z,83.65
2023-01-19T00:23:04.986Z,83.67
2023-01-19T00:25:31.724Z,83.72
2023-01-19T00:28:00.613Z,83.76
2023-01-19T00:30:28.125Z,83.55
2023-01-19T00:32:54.643Z,83.68
2023-01-19T00:35:21.212Z,83.78
2023-01-19T00:37:47.774Z,83.89
2023-01-19T00:40:14.334Z,83.77
2023-01-19T00:42:41.409Z,83.94
2023-01-19T00:45:09.726Z,83.81
2023-01-19T00:47:36.501Z,83.98
2023-01-19T00:50:03.155Z,83.89
2023-01-19T00:52:29.646Z,83.77
2023-01-19T00:54:56.181Z,83.90
2023-01-19T00:57:23.523Z,83.86
2023-01-19T00:59:50.044Z,83.69
2023-01-19T01:02:16.825Z,83.68
2023-01-19T01:04:43.559Z,83.92
2023-01-19T01:07:10.165Z,83.72
2023-01-19T01:09:36.659Z,83.86
2023-01-19T01:12:03.335Z,83.94
2023-01-19T01:14:32.908Z,84.15
2023-01-19T01:17:00.659Z,83.96
2023-01-19T01:19:27.244Z,83.86
2023-01-19T01:21:53.763Z,84.11
2023-01-19T01:24:20.772Z,84.08
2023-01-19T01:26:47.375Z,84.02
2023-01-19T01:29:13.910Z,83.79
2023-01-19T01:31:40.490Z,83.87
2023-01-19T01:34:07.210Z,83.92
2023-01-19T01:36:34.087Z,83.88
2023-01-19T01:39:00.704Z,83.81
2023-01-19T01:41:29.998Z,83.83
2023-01-19T01:43:58.883Z,83.89
2023-01-19T01:46:26.913Z,83.78
2023-01-19T01:49:16.424Z,83.89
2023-01-19T01:51:49.359Z,84.00
2023-01-19T01:54:21.721Z,84.03
2023-01-19T01:56:51.425Z,83.93
2023-01-19T01:59:29.797Z,83.90
2023-01-19T02:02:18.950Z,83.85
2023-01-19T02:04:53.641Z,84.05
2023-01-19T02:07:52.278Z,83.93
2023-01-19T02:10:37.654Z,84.04
2023-01-19T02:13:22.877Z,83.83
2023-01-19T02:15:52.669Z,83.73
2023-01-19T02:18:24.479Z,83.94
2023-01-19T02:20:59.049Z,83.97
2023-01-19T02:23:46.691Z,83.70
2023-01-19T02:26:17.005Z,83.67
2023-01-19T02:28:48.387Z,83.75
2023-01-19T02:31:15.292Z,83.76
2023-01-19T02:33:42.101Z,83.85
2023-01-19T02:36:11.943Z,83.84
2023-01-19T02:38:41.136Z,83.84
2023-01-19T02:41:11.230Z,83.77
2023-01-19T02:43:38.819Z,83.83
2023-01-19T02:46:05.446Z,83.61
2023-01-19T02:48:32.203Z,83.73
2023-01-19T02:51:04.663Z,83.88
2023-01-19T02:53:53.914Z,83.77
2023-01-19T02:56:39.832Z,83.71
2023-01-19T02:59:10.092Z,83.85
2023-01-19T03:01:47.459Z,83.71
2023-01-19T03:04:32.344Z,83.70
2023-01-19T03:07:16.073Z,83.69
2023-01-19T03:09:52.679Z,83.77
2023-01-19T03:12:40.744Z,83.68
2023-01-19T03:15:22.146Z,83.88
2023-01-19T03:17:51.372Z,83.94
2023-01-19T03:20:22.542Z,83.91
2023-01-19T03:22:54.042Z,83.82
2023-01-19T03:25:23.203Z,83.55
2023-01-19T03:27:53.943Z,83.65
2023-01-19T03:30:25.835Z,83.69
2023-01-19T03:32:56.724Z,83.71
2023-01-19T03:35:26.400Z,83.84
2023-01-19T03:37:58.143Z,83.70
2023-01-19T03:40:30.825Z,83.82
2023-01-19T03:42:59.312Z,83.84
2023-01-19T03:45:27.079Z,83.96
2023-01-19T03:47:55.502Z,83.86
2023-01-19T03:50:27.288Z,83.72
2023-01-19T03:53:11.707Z,83.90
2023-01-19T03:55:41.533Z,83.75
2023-01-19T03:58:08.515Z,84.01
2023-01-19T04:00:36.524Z,83.86
2023-01-19T04:03:07.301Z,83.86
2023-01-19T04:05:34.236Z,83.74
2023-01-19T04:08:00.750Z,83.97
2023-01-19T04:10:27.397Z,83.76
2023-01-19T04:13:01.302Z,83.76
2023-01-19T04:15:28.816Z,83.80
2023-01-19T04:17:58.257Z,83.74
2023-01-19T04:20:27.049Z,83.93
2023-01-19T04:22:54.933Z,83.69
2023-01-19T04:25:21.670Z,83.78
2023-01-19T04:27:51.989Z,83.88
2023-01-19T04:30:18.906Z,83.85
2023-01-19T04:32:45.466Z,83.76
2023-01-19T04:35:11.903Z,83.69
2023-01-19T04:37:38.501Z,83.72
2023-01-19T04:40:05.624Z,83.61
2023-01-19T04:42:32.539Z,83.50
2023-01-19T04:44:59.035Z,83.91
2023-01-19T04:47:25.588Z,83.88
2023-01-19T04:49:52.331Z,83.87
2023-01-19T04:52:19.089Z,83.59
2023-01-19T04:54:45.616Z,83.77
2023-01-19T04:57:12.195Z,83.70
2023-01-19T04:59:38.800Z,83.93
2023-01-19T05:02:05.449Z,83.72
2023-01-19T05:04:31.942Z,83.96
2023-01-19T05:06:58.750Z,83.71
2023-01-19T05:09:29.011Z,83.66
2023-01-19T05:11:56.451Z,83.74
2023-01-19T05:14:22.976Z,83.80
2023-01-19T05:16:49.429Z,83.72
2023-01-19T05:19:15.977Z,83.85
2023-01-19T05:21:42.558Z,83.70
2023-01-19T05:24:09.234Z,83.85
2023-01-19T05:26:35.753Z,83.65
2023-01-19T05:29:02.322Z,83.82
2023-01-19T05:31:28.945Z,83.69
2023-01-19T05:33:55.597Z,83.81
2023-01-19T05:36:22.152Z,83.78
2023-01-19T05:38:49.131Z,83.87
2023-01-19T05:41:15.638Z,83.92
2023-01-19T05:43:43.549Z,83.64
2023-01-19T05:46:10.043Z,83.79
2023-01-19T05:48:36.531Z,83.49
2023-01-19T05:51:05.236Z,83.43
2023-01-19T05:53:32.294Z,83.33
2023-01-19T05:56:03.640Z,83.63
2023-01-19T05:58:30.112Z,83.60
2023-01-19T06:00:56.706Z,83.40
2023-01-19T06:03:23.409Z,83.45
2023-01-19T06:05:50.031Z,83.53
2023-01-19T06:08:16.568Z,83.56
2023-01-19T06:10:43.087Z,83.51
2023-01-19T06:13:11.236Z,83.51
2023-01-19T06:15:38.107Z,83.55
2023-01-19T06:18:04.790Z,83.64
2023-01-19T06:20:31.365Z,83.68
2023-01-19T06:22:58.025Z,83.53
2023-01-19T06:25:26.142Z,83.72
2023-01-19T06:27:52.794Z,83.50
2023-01-19T06:30:19.850Z,83.62
2023-01-19T06:32:47.523Z,83.68
2023-01-19T06:35:14.299Z,83.67
2023-01-19T06:37:41.464Z,83.62
2023-01-19T06:40:11.112Z,83.67
2023-01-19T06:42:38.540Z,83.68
2023-01-19T06:45:05.583Z,83.74
2023-01-19T06:47:34.420Z,83.58
2023-01-19T06:50:01.827Z,83.47
2023-01-19T06:52:28.508Z,83.46
2023-01-19T06:54:54.973Z,83.19
2023-01-19T06:57:24.089Z,83.40
2023-01-19T06:59:50.589Z,83.29
2023-01-19T07:02:27.985Z,83.07
2023-01-19T07:04:56.313Z,83.10
2023-01-19T07:07:22.911Z,83.11
2023-01-19T07:09:49.771Z,82.99
2023-01-19T07:12:20.466Z,83.05
2023-01-19T07:14:47.002Z,83.22
2023-01-19T07:17:13.507Z,83.16
2023-01-19T07:19:40.044Z,83.18
2023-01-19T07:22:06.935Z,83.28
2023-01-19T07:24:35.008Z,83.08
2023-01-19T07:27:01.883Z,83.31
2023-01-19T07:29:28.409Z,83.10
2023-01-19T07:31:54.992Z,83.32
2023-01-19T07:34:21.786Z,83.25
2023-01-19T07:36:48.587Z,83.03
2023-01-19T07:39:15.254Z,83.24
2023-01-19T07:41:41.723Z,83.09
2023-01-19T07:44:08.917Z,82.99
2023-01-19T07:46:35.415Z,83.06
2023-01-19T07:49:01.949Z,82.98
2023-01-19T07:51:28.449Z,83.16
2023-01-19T07:53:54.984Z,83.00
2023-01-19T07:56:22.411Z,82.94
2023-01-19T07:58:50.372Z,83.01
2023-01-19T08:01:16.940Z,82.91
2023-01-19T08:03:43.694Z,82.91
2023-01-19T08:06:24.855Z,82.76
2023-01-19T08:08:51.481Z,82.74
2023-01-19T08:11:18.064Z,82.82
2023-01-19T08:13:44.806Z,82.65
2023-01-19T08:16:11.394Z,82.54
2023-01-19T08:18:38.038Z,82.39
2023-01-19T08:21:04.831Z,82.33
2023-01-19T08:23:36.555Z,82.54
2023-01-19T08:26:17.957Z,82.53
2023-01-19T08:28:44.602Z,82.40
2023-01-19T08:31:19.671Z,82.40
2023-01-19T08:33:48.145Z,82.32
2023-01-19T08:36:14.948Z,81.82
2023-01-19T08:38:44.084Z,81.81
2023-01-19T08:41:11.841Z,81.72
2023-01-19T08:43:38.415Z,81.59
2023-01-19T08:46:05.708Z,81.19
2023-01-19T08:48:32.495Z,81.39
2023-01-19T08:51:00.349Z,81.24
2023-01-19T08:53:27.202Z,81.42
2023-01-19T08:55:59.864Z,81.22
2023-01-19T08:58:26.388Z,80.87
2023-01-19T09:00:53.553Z,80.67
2023-01-19T09:03:22.646Z,81.04
2023-01-19T09:05:49.517Z,80.88
2023-01-19T09:08:16.245Z,81.04
2023-01-19T09:10:50.456Z,81.09
2023-01-19T09:13:19.050Z,80.81
2023-01-19T09:15:46.484Z,80.75
2023-01-19T09:18:18.777Z,80.65
2023-01-19T09:20:47.421Z,80.60
2023-01-19T09:23:20.112Z,80.18
2023-01-19T09:25:47.979Z,80.17
2023-01-19T09:28:17.593Z,80.01
2023-01-19T09:30:44.877Z,79.96
2023-01-19T09:33:14.786Z,79.86
2023-01-19T09:35:42.347Z,79.97
2023-01-19T09:38:10.605Z,79.73
2023-01-19T09:40:58.347Z,79.91
2023-01-19T09:43:34.433Z,79.83
2023-01-19T09:46:03.917Z,79.76
2023-01-19T09:48:48.115Z,79.87
2023-01-19T09:51:26.746Z,79.74
2023-01-19T09:54:10.915Z,79.65
2023-01-19T09:56:38.910Z,79.60
2023-01-19T09:59:32.214Z,79.60
2023-01-19T10:02:10.925Z,79.63
2023-01-19T10:05:00.140Z,79.50
2023-01-19T10:07:32.630Z,79.21
2023-01-19T10:10:16.478Z,79.46
2023-01-19T10:13:10.193Z,79.23
2023-01-19T10:15:55.372Z,79.57
2023-01-19T10:18:33.214Z,79.17
2023-01-19T10:21:31.588Z,79.23
2023-01-19T10:24:14.625Z,79.02
2023-01-19T10:26:46.008Z,78.55
2023-01-19T10:29:22.921Z,78.23
2023-01-19T10:31:52.965Z,78.19
2023-01-19T10:34:23.350Z,78.37
2023-01-19T10:36:57.645Z,77.91
2023-01-19T10:39:24.218Z,78.29
2023-01-19T10:41:53.326Z,78.33
2023-01-19T10:44:29.153Z,78.19
2023-01-19T10:46:59.103Z,78.19
2023-01-19T10:49:45.971Z,78.01
2023-01-19T10:52:36.447Z,77.93
2023-01-19T10:55:06.593Z,77.80
2023-01-19T10:57:43.562Z,78.02
2023-01-19T11:00:42.868Z,78.14
2023-01-19T11:03:29.993Z,78.38
2023-01-19T11:06:18.734Z,78.27
2023-01-19T11:08:47.494Z,78.26
2023-01-19T11:11:14.595Z,78.14
2023-01-19T11:13:42.786Z,77.94
2023-01-19T11:16:29.563Z,77.67
2023-01-19T11:18:57.876Z,77.88
2023-01-19T11:21:26.945Z,77.85
2023-01-19T11:23:57.881Z,77.45
2023-01-19T11:26:29.912Z,77.49
2023-01-19T11:28:58.619Z,77.22
2023-01-19T11:31:28.238Z,77.13
2023-01-19T11:34:01.066Z,77.19
2023-01-19T11:36:37.809Z,77.06
2023-01-19T11:39:25.959Z,77.24
2023-01-19T11:41:57.164Z,76.95
2023-01-19T11:44:34.230Z,77.00
2023-01-19T11:47:05.075Z,76.92
2023-01-19T11:49:47.714Z,76.74
2023-01-19T11:52:29.498Z,76.78
2023-01-19T11:55:33.594Z,76.81
2023-01-19T11:58:00.677Z,76.54
2023-01-19T12:00:36.083Z,76.61
2023-01-19T12:03:17.105Z,76.83
2023-01-19T12:05:48.908Z,76.63
2023-01-19T12:09:01.683Z,76.56
2023-01-19T12:11:34.429Z,76.69
2023-01-19T12:14:02.135Z,76.75
2023-01-19T12:16:32.918Z,76.80
2023-01-19T12:19:13.137Z,76.85
2023-01-19T12:21:39.579Z,76.80
2023-01-19T12:24:20.887Z,76.79
2023-01-19T12:26:56.144Z,77.00
2023-01-19T12:29:26.104Z,77.06
2023-01-19T12:32:14.434Z,76.67
2023-01-19T12:34:42.943Z,76.96
2023-01-19T12:37:40.601Z,77.05
2023-01-19T12:40:28.842Z,76.90
2023-01-19T12:43:04.744Z,77.08
2023-01-19T12:45:35.915Z,77.10
2023-01-19T12:48:04.414Z,77.00
2023-01-19T12:50:38.032Z,77.07
2023-01-19T12:53:15.770Z,76.82
2023-01-19T12:55:46.549Z,76.89
2023-01-19T12:58:15.029Z,76.69
2023-01-19T13:00:43.454Z,76.82
2023-01-19T13:03:18.960Z,76.73
2023-01-19T13:05:56.343Z,76.54
2023-01-19T13:08:30.343Z,76.45
2023-01-19T13:11:02.793Z,76.67
2023-01-19T13:13:44.956Z,76.57
2023-01-19T13:16:20.771Z,76.66
2023-01-19T13:18:55.174Z,76.75
2023-01-19T13:21:39.766Z,76.87
2023-01-19T13:24:12.116Z,77.04
2023-01-19T13:26:50.679Z,77.04
2023-01-19T13:29:31.767Z,77.15
2023-01-19T13:32:03.837Z,77.13
2023-01-19T13:34:44.641Z,77.29
2023-01-19T13:37:22.481Z,77.01
2023-01-19T13:39:52.196Z,77.45
2023-01-19T13:42:24.744Z,77.21
2023-01-19T13:44:54.491Z,77.39
2023-01-19T13:47:31.618Z,77.43
2023-01-19T13:49:59.064Z,77.28
2023-01-19T13:52:27.873Z,77.33
2023-01-19T13:55:02.670Z,77.67
2023-01-19T13:57:33.321Z,77.41
2023-01-19T14:00:29.968Z,77.48
2023-01-19T14:03:25.675Z,77.50
2023-01-19T14:05:54.668Z,77.80
2023-01-19T14:08:22.231Z,77.69
2023-01-19T14:10:54.560Z,77.83
2023-01-19T14:13:32.788Z,77.59
2023-01-19T14:16:05.081Z,77.70
2023-01-19T14:18:35.367Z,77.78
2023-01-19T14:21:04.024Z,77.66
2023-01-19T14:23:48.866Z,78.02
2023-01-19T14:26:37.114Z,77.88
2023-01-19T14:29:09.553Z,77.95
2023-01-19T14:31:48.002Z,78.02
2023-01-19T14:34:36.371Z,78.31
2023-01-19T14:37:04.709Z,78.35
2023-01-19T14:39:34.323Z,78.10
2023-01-19T14:42:04.023Z,78.35
2023-01-19T14:44:38.727Z,78.19
2023-01-19T14:47:07.123Z,78.14
2023-01-19T14:49:42.033Z,78.56
2023-01-19T14:52:26.037Z,78.49
2023-01-19T14:54:54.930Z,78.68
2023-01-19T14:57:21.470Z,78.55
2023-01-19T14:59:49.611Z,78.54
2023-01-19T15:02:19.058Z,78.59
2023-01-19T15:04:47.944Z,78.77
2023-01-19T15:07:22.838Z,78.92
2023-01-19T15:09:49.996Z,78.92
2023-01-19T15:12:18.292Z,78.87
2023-01-19T15:14:45.688Z,78.79
2023-01-19T15:17:17.571Z,79.05
2023-01-19T15:19:44.015Z,78.76
2023-01-19T15:22:14.735Z,78.82
2023-01-19T15:24:41.127Z,79.08
2023-01-19T15:27:12.140Z,78.65
2023-01-19T15:29:40.216Z,79.18
2023-01-19T15:32:12.329Z,79.19
2023-01-19T15:34:38.735Z,79.04
2023-01-19T15:37:05.094Z,79.13
2023-01-19T15:39:32.288Z,79.17
2023-01-19T15:41:59.326Z,79.04
2023-01-19T15:44:25.977Z,79.30
2023-01-19T15:46:54.599Z,79.07
2023-01-19T15:49:21.207Z,79.20
2023-01-19T15:51:47.636Z,79.44
2023-01-19T15:54:14.807Z,79.47
2023-01-19T15:56:42.480Z,79.34
2023-01-19T15:59:08.934Z,79.40
2023-01-19T16:01:36.107Z,79.73
2023-01-19T16:04:05.318Z,79.72
2023-01-19T16:06:33.033Z,79.60
2023-01-19T16:09:01.068Z,79.73
2023-01-19T16:11:30.097Z,79.65
2023-01-19T16:13:56.846Z,79.88
2023-01-19T16:16:25.470Z,80.06
2023-01-19T16:18:52.284Z,79.84
2023-01-19T16:21:18.861Z,80.08
2023-01-19T16:23:45.326Z,80.00
2023-01-19T16:26:34.356Z,80.21
2023-01-19T16:29:07.698Z,80.15
2023-01-19T16:31:34.808Z,79.98
2023-01-19T16:34:03.027Z,80.15
2023-01-19T16:36:31.957Z,80.32
2023-01-19T16:39:06.904Z,80.21
2023-01-19T16:41:34.370Z,80.34
2023-01-19T16:44:01.470Z,80.48
2023-01-19T16:46:30.493Z,80.64
2023-01-19T16:49:10.271Z,80.75
2023-01-19T16:51:37.548Z,80.82
2023-01-19T16:54:04.205Z,80.47
2023-01-19T16:56:30.583Z,80.82
2023-01-19T16:58:58.558Z,80.76
2023-01-19T17:01:27.384Z,80.81
2023-01-19T17:03:55.137Z,80.75
2023-01-19T17:06:24.035Z,81.03
2023-01-19T17:08:51.723Z,80.89
2023-01-19T17:11:20.455Z,80.71
2023-01-19T17:13:48.033Z,80.71
2023-01-19T17:16:14.591Z,80.85
2023-01-19T17:18:41.072Z,80.90
2023-01-19T17:21:09.956Z,80.92
2023-01-19T17:23:37.672Z,80.98
2023-01-19T17:26:05.121Z,81.08
2023-01-19T17:28:31.525Z,81.02
2023-01-19T17:31:16.040Z,81.09
2023-01-19T17:33:47.810Z,80.88
2023-01-19T17:36:16.622Z,81.18
2023-01-19T17:38:43.020Z,81.06
2023-01-19T17:41:24.213Z,81.32
2023-01-19T17:43:51.407Z,81.27
2023-01-19T17:46:19.758Z,81.32
2023-01-19T17:48:51.590Z,81.35
2023-01-19T17:51:18.154Z,81.58
2023-01-19T17:53:44.671Z,81.53
2023-01-19T17:56:16.019Z,81.36
2023-01-19T17:58:42.944Z,81.74
2023-01-19T18:01:22.398Z,81.63
2023-01-19T18:03:49.086Z,81.70
2023-01-19T18:06:16.231Z,81.61
2023-01-19T18:08:46.103Z,81.58
2023-01-19T18:11:13.780Z,81.65
2023-01-19T18:13:42.921Z,81.68
2023-01-19T18:16:11.921Z,81.71
2023-01-19T18:18:38.706Z,81.77
2023-01-19T18:21:09.863Z,81.95
2023-01-19T18:23:36.953Z,81.78
2023-01-19T18:26:09.196Z,81.78
2023-01-19T18:28:35.936Z,81.62
2023-01-19T18:31:06.352Z,81.76
2023-01-19T18:33:34.048Z,81.74
2023-01-19T18:36:00.994Z,81.68
2023-01-19T18:38:27.576Z,81.74
2023-01-19T18:41:02.617Z,81.85
2023-01-19T18:43:29.423Z,81.72
2023-01-19T18:45:55.989Z,81.90
2023-01-19T18:48:22.936Z,81.65
2023-01-19T18:50:50.029Z,81.76
2023-01-19T18:53:16.672Z,81.92
2023-01-19T18:56:11.588Z,81.84
2023-01-19T18:58:38.975Z,81.99
2023-01-19T19:01:17.779Z,81.82
2023-01-19T19:03:44.280Z,81.91
2023-01-19T19:06:11.684Z,81.85
2023-01-19T19:08:38.129Z,82.04
2023-01-19T19:11:08.233Z,81.86
2023-01-19T19:13:34.789Z,82.08
2023-01-19T19:16:09.075Z,81.96
2023-01-19T19:18:36.972Z,81.98
2023-01-19T19:21:08.346Z,82.16
2023-01-19T19:23:35.162Z,82.17
2023-01-19T19:26:08.615Z,81.91
2023-01-19T19:28:36.682Z,82.02
2023-01-19T19:31:05.825Z,82.17
2023-01-19T19:33:32.775Z,82.07
2023-01-19T19:35:59.853Z,82.25
2023-01-19T19:38:27.574Z,82.15
2023-01-19T19:41:00.444Z,82.32
2023-01-19T19:43:27.407Z,82.13
2023-01-19T19:46:02.214Z,82.22
2023-01-19T19:48:29.169Z,82.21
2023-01-19T19:50:57.525Z,82.28
2023-01-19T19:53:26.758Z,82.43
2023-01-19T19:56:01.181Z,82.42
2023-01-19T19:58:28.417Z,82.47
2023-01-19T20:00:55.398Z,82.46
2023-01-19T20:03:22.133Z,82.58
2023-01-19T20:05:48.525Z,82.40
2023-01-19T20:08:14.957Z,82.53
2023-01-19T20:10:41.381Z,82.71
2023-01-19T20:13:09.170Z,82.53
2023-01-19T20:15:39.511Z,82.46
2023-01-19T20:18:06.581Z,82.67
2023-01-19T20:20:34.457Z,82.70
2023-01-19T20:23:01.496Z,82.70
2023-01-19T20:25:28.827Z,82.47
2023-01-19T20:27:56.878Z,82.57
2023-01-19T20:30:23.409Z,82.65
2023-01-19T20:32:51.293Z,82.70
2023-01-19T20:35:18.102Z,82.62
2023-01-19T20:37:44.576Z,82.78
2023-01-19T20:40:11.066Z,82.64
2023-01-19T20:42:41.197Z,82.90
2023-01-19T20:45:08.308Z,82.71
2023-01-19T20:47:34.971Z,82.95
2023-01-19T20:50:01.479Z,82.70
2023-01-19T20:52:28.040Z,82.88
2023-01-19T20:54:54.529Z,82.89
2023-01-19T20:57:20.923Z,82.72
2023-01-19T20:59:47.333Z,82.87
2023-01-19T21:02:15.118Z,82.91
2023-01-19T21:04:41.702Z,82.84
2023-01-19T21:07:09.052Z,83.13
2023-01-19T21:09:37.328Z,82.98
2023-01-19T21:12:03.899Z,83.04
2023-01-19T21:14:30.634Z,82.98
2023-01-19T21:16:58.388Z,83.15
2023-01-19T21:19:25.380Z,83.03
2023-01-19T21:21:51.917Z,83.08
2023-01-19T21:24:18.337Z,83.10
2023-01-19T21:26:44.903Z,83.04
2023-01-19T21:29:13.315Z,83.08
2023-01-19T21:31:40.782Z,83.21
2023-01-19T21:34:07.209Z,83.25
2023-01-19T21:36:33.733Z,83.34
2023-01-19T21:39:00.857Z,83.31
2023-01-19T21:41:29.769Z,83.22
2023-01-19T21:43:56.563Z,83.23
2023-01-19T21:46:29.715Z,83.36
2023-01-19T21:48:58.567Z,83.21
2023-01-19T21:51:25.137Z,83.21
2023-01-19T21:53:59.293Z,83.28
2023-01-19T21:56:30.183Z,83.47
2023-01-19T21:58:57.941Z,83.57
2023-01-19T22:01:24.639Z,83.54
2023-01-19T22:03:55.870Z,83.66
2023-01-19T22:06:23.184Z,83.60
2023-01-19T22:08:49.893Z,83.57
2023-01-19T22:11:18.776Z,83.78
2023-01-19T22:13:45.406Z,83.69
2023-01-19T22:16:13.989Z,83.86
2023-01-19T22:18:42.696Z,83.75
2023-01-19T22:21:10.215Z,83.90
2023-01-19T22:23:37.280Z,83.98
2023-01-19T22:26:04.866Z,83.74
2023-01-19T22:28:31.765Z,83.67
2023-01-19T22:31:14.341Z,83.72
2023-01-19T22:33:41.340Z,83.82
2023-01-19T22:36:10.359Z,83.92
2023-01-19T22:38:38.616Z,83.79
2023-01-19T22:41:19.699Z,83.96
2023-01-19T22:43:47.398Z,83.80
2023-01-19T22:46:17.879Z,83.88
2023-01-19T22:48:44.630Z,83.85
2023-01-19T22:51:11.062Z,83.71
2023-01-19T22:53:37.590Z,84.03
2023-01-19T22:56:18.685Z,83.72
2023-01-19T22:58:45.993Z,83.90
2023-01-19T23:01:15.868Z,83.91
2023-01-19T23:03:42.635Z,84.01
2023-01-19T23:06:12.071Z,83.82
2023-01-19T23:08:39.456Z,83.98
2023-01-19T23:11:17.450Z,83.82
2023-01-19T23:13:44.084Z,83.84
2023-01-19T23:16:11.667Z,83.89
2023-01-19T23:18:38.924Z,83.79
2023-01-19T23:21:08.634Z,83.99
2023-01-19T23:23:35.841Z,83.68
2023-01-19T23:26:09.547Z,83.93
2023-01-19T23:28:36.939Z,83.84
2023-01-19T23:31:25.203Z,84.11
2023-01-19T23:33:54.195Z,84.01
2023-01-19T23:36:22.724Z,83.89
2023-01-19T23:38:57.528Z,83.88
2023-01-19T23:41:25.472Z,83.93
2023-01-19T23:43:52.112Z,84.25
2023-01-19T23:46:19.498Z,84.11
2023-01-19T23:48:46.261Z,83.99
2023-01-19T23:51:16.341Z,83.88
2023-01-19T23:53:43.304Z,84.07
2023-01-19T23:56:15.235Z,84.31
2023-01-19T23:58:41.869Z,84.10
